sensor_id;sensor_type;location;lat;lon;timestamp;P1;durP1;ratioP1;P2;durP2;ratioP2
45540;SDS011;31265;49.680;8.608;2022-08-18T00:01:04;7.40;;;2.10;;
45540;SDS011;31265;49.680;8.608;2022-08-18T00:03:33;3.80;;;1.80;;
45540;SDS011;31265;49.680;8.608;2022-08-18T00:06:21;3.40;;;2.15;;
45540;SDS011;31265;49.680;8.608;2022-08-18T00:08:55;3.75;;;1.95;;
45540;SDS011;31265;49.680;8.608;2022-08-18T00:11:24;3.88;;;1.95;;
45540;SDS011;31265;49.680;8.608;2022-08-18T00:13:53;4.13;;;2.03;;
45540;SDS011;31265;49.680;8.608;2022-08-18T00:16:21;6.63;;;2.42;;
45540;SDS011;31265;49.680;8.608;2022-08-18T00:18:49;7.18;;;2.20;;
45540;SDS011;31265;49.680;8.608;2022-08-18T00:21:17;6.68;;;2.28;;
45540;SDS011;31265;49.680;8.608;2022-08-18T00:23:45;3.30;;;1.85;;
45540;SDS011;31265;49.680;8.608;2022-08-18T00:26:15;4.45;;;2.05;;
45540;SDS011;31265;49.680;8.608;2022-08-18T00:28:43;3.95;;;2.05;;
45540;SDS011;31265;49.680;8.608;2022-08-18T00:31:11;3.53;;;1.92;;
45540;SDS011;31265;49.680;8.608;2022-08-18T00:33:39;3.47;;;2.00;;
45540;SDS011;31265;49.680;8.608;2022-08-18T00:38:37;8.68;;;2.38;;
45540;SDS011;31265;49.680;8.608;2022-08-18T00:41:06;2.83;;;1.67;;
45540;SDS011;31265;49.680;8.608;2022-08-18T00:43:37;4.47;;;2.05;;
45540;SDS011;31265;49.680;8.608;2022-08-18T00:46:09;9.18;;;2.20;;
45540;SDS011;31265;49.680;8.608;2022-08-18T00:48:41;3.90;;;1.88;;
45540;SDS011;31265;49.680;8.608;2022-08-18T00:51:16;3.50;;;1.77;;
45540;SDS011;31265;49.680;8.608;2022-08-18T00:53:48;3.10;;;1.73;;
45540;SDS011;31265;49.680;8.608;2022-08-18T00:56:22;2.70;;;1.83;;
45540;SDS011;31265;49.680;8.608;2022-08-18T00:58:56;10.93;;;2.38;;
45540;SDS011;31265;49.680;8.608;2022-08-18T01:01:28;4.00;;;1.73;;
45540;SDS011;31265;49.680;8.608;2022-08-18T01:03:59;3.80;;;2.00;;
45540;SDS011;31265;49.680;8.608;2022-08-18T01:06:35;5.03;;;1.65;;
45540;SDS011;31265;49.680;8.608;2022-08-18T01:09:06;3.15;;;1.98;;
45540;SDS011;31265;49.680;8.608;2022-08-18T01:11:35;3.53;;;1.92;;
45540;SDS011;31265;49.680;8.608;2022-08-18T01:14:05;9.48;;;2.30;;
45540;SDS011;31265;49.680;8.608;2022-08-18T01:16:35;3.45;;;1.77;;
45540;SDS011;31265;49.680;8.608;2022-08-18T01:19:23;11.15;;;2.25;;
45540;SDS011;31265;49.680;8.608;2022-08-18T01:22:14;3.05;;;1.70;;
45540;SDS011;31265;49.680;8.608;2022-08-18T01:24:49;3.10;;;1.60;;
45540;SDS011;31265;49.680;8.608;2022-08-18T01:27:36;5.65;;;1.88;;
45540;SDS011;31265;49.680;8.608;2022-08-18T01:30:05;6.05;;;1.40;;
45540;SDS011;31265;49.680;8.608;2022-08-18T01:32:37;6.00;;;1.60;;
45540;SDS011;31265;49.680;8.608;2022-08-18T01:35:06;2.70;;;1.45;;
45540;SDS011;31265;49.680;8.608;2022-08-18T01:37:36;2.42;;;1.20;;
45540;SDS011;31265;49.680;8.608;2022-08-18T01:40:09;2.25;;;1.10;;
45540;SDS011;31265;49.680;8.608;2022-08-18T01:42:59;3.90;;;1.73;;
45540;SDS011;31265;49.680;8.608;2022-08-18T01:50:27;3.55;;;1.45;;
45540;SDS011;31265;49.680;8.608;2022-08-18T01:52:55;3.33;;;1.58;;
45540;SDS011;31265;49.680;8.608;2022-08-18T01:55:25;2.28;;;1.20;;
45540;SDS011;31265;49.680;8.608;2022-08-18T01:57:54;3.33;;;1.20;;
45540;SDS011;31265;49.680;8.608;2022-08-18T02:00:22;3.75;;;1.50;;
45540;SDS011;31265;49.680;8.608;2022-08-18T02:02:51;4.22;;;1.25;;
45540;SDS011;31265;49.680;8.608;2022-08-18T02:05:29;5.05;;;1.63;;
45540;SDS011;31265;49.680;8.608;2022-08-18T02:08:03;3.20;;;1.48;;
45540;SDS011;31265;49.680;8.608;2022-08-18T02:10:34;2.60;;;1.35;;
45540;SDS011;31265;49.680;8.608;2022-08-18T02:15:31;4.20;;;2.05;;
45540;SDS011;31265;49.680;8.608;2022-08-18T02:17:59;2.35;;;1.40;;
45540;SDS011;31265;49.680;8.608;2022-08-18T02:20:27;2.88;;;1.70;;
45540;SDS011;31265;49.680;8.608;2022-08-18T02:22:55;3.28;;;1.38;;
45540;SDS011;31265;49.680;8.608;2022-08-18T02:25:24;2.45;;;1.40;;
45540;SDS011;31265;49.680;8.608;2022-08-18T02:27:54;2.50;;;1.30;;
45540;SDS011;31265;49.680;8.608;2022-08-18T02:30:23;2.45;;;1.48;;
45540;SDS011;31265;49.680;8.608;2022-08-18T02:32:51;2.10;;;1.30;;
45540;SDS011;31265;49.680;8.608;2022-08-18T02:35:19;2.47;;;1.08;;
45540;SDS011;31265;49.680;8.608;2022-08-18T02:37:47;2.72;;;1.67;;
45540;SDS011;31265;49.680;8.608;2022-08-18T02:40:16;3.20;;;1.50;;
45540;SDS011;31265;49.680;8.608;2022-08-18T02:42:45;3.25;;;1.63;;
45540;SDS011;31265;49.680;8.608;2022-08-18T02:45:15;2.63;;;1.20;;
45540;SDS011;31265;49.680;8.608;2022-08-18T02:47:44;2.72;;;1.70;;
45540;SDS011;31265;49.680;8.608;2022-08-18T02:50:12;2.60;;;1.30;;
45540;SDS011;31265;49.680;8.608;2022-08-18T02:55:10;3.53;;;1.40;;
45540;SDS011;31265;49.680;8.608;2022-08-18T02:57:40;2.92;;;1.50;;
45540;SDS011;31265;49.680;8.608;2022-08-18T03:00:09;2.88;;;1.60;;
45540;SDS011;31265;49.680;8.608;2022-08-18T03:02:43;4.72;;;1.60;;
45540;SDS011;31265;49.680;8.608;2022-08-18T03:05:12;2.13;;;1.33;;
45540;SDS011;31265;49.680;8.608;2022-08-18T03:07:40;2.70;;;1.23;;
45540;SDS011;31265;49.680;8.608;2022-08-18T03:10:09;2.67;;;1.35;;
45540;SDS011;31265;49.680;8.608;2022-08-18T03:12:57;2.50;;;1.30;;
45540;SDS011;31265;49.680;8.608;2022-08-18T03:15:26;2.85;;;1.63;;
45540;SDS011;31265;49.680;8.608;2022-08-18T03:17:55;2.97;;;1.60;;
45540;SDS011;31265;49.680;8.608;2022-08-18T03:22:57;2.28;;;1.27;;
45540;SDS011;31265;49.680;8.608;2022-08-18T03:25:35;3.88;;;1.58;;
45540;SDS011;31265;49.680;8.608;2022-08-18T03:28:04;3.17;;;1.58;;
45540;SDS011;31265;49.680;8.608;2022-08-18T03:30:32;2.10;;;1.30;;
45540;SDS011;31265;49.680;8.608;2022-08-18T03:33:01;2.85;;;1.50;;
45540;SDS011;31265;49.680;8.608;2022-08-18T03:35:29;2.83;;;1.70;;
45540;SDS011;31265;49.680;8.608;2022-08-18T03:37:57;3.45;;;1.70;;
45540;SDS011;31265;49.680;8.608;2022-08-18T03:40:26;3.92;;;1.25;;
45540;SDS011;31265;49.680;8.608;2022-08-18T03:42:54;2.90;;;1.42;;
45540;SDS011;31265;49.680;8.608;2022-08-18T03:45:22;4.32;;;1.48;;
45540;SDS011;31265;49.680;8.608;2022-08-18T03:47:53;2.72;;;1.30;;
45540;SDS011;31265;49.680;8.608;2022-08-18T03:50:22;3.53;;;1.45;;
45540;SDS011;31265;49.680;8.608;2022-08-18T03:52:51;4.32;;;1.35;;
45540;SDS011;31265;49.680;8.608;2022-08-18T03:55:19;2.83;;;1.13;;
45540;SDS011;31265;49.680;8.608;2022-08-18T03:57:47;5.38;;;1.63;;
45540;SDS011;31265;49.680;8.608;2022-08-18T04:00:18;2.90;;;1.45;;
45540;SDS011;31265;49.680;8.608;2022-08-18T04:02:47;3.55;;;1.95;;
45540;SDS011;31265;49.680;8.608;2022-08-18T04:05:15;2.83;;;1.38;;
45540;SDS011;31265;49.680;8.608;2022-08-18T04:07:45;3.70;;;1.40;;
45540;SDS011;31265;49.680;8.608;2022-08-18T04:10:13;3.92;;;1.70;;
45540;SDS011;31265;49.680;8.608;2022-08-18T04:12:45;2.60;;;1.20;;
45540;SDS011;31265;49.680;8.608;2022-08-18T04:15:14;3.53;;;1.60;;
45540;SDS011;31265;49.680;8.608;2022-08-18T04:17:42;2.03;;;1.23;;
45540;SDS011;31265;49.680;8.608;2022-08-18T04:20:29;3.88;;;1.80;;
45540;SDS011;31265;49.680;8.608;2022-08-18T04:23:00;3.08;;;1.52;;
45540;SDS011;31265;49.680;8.608;2022-08-18T04:25:28;7.03;;;1.58;;
45540;SDS011;31265;49.680;8.608;2022-08-18T04:27:59;2.15;;;1.15;;
45540;SDS011;31265;49.680;8.608;2022-08-18T04:30:29;2.78;;;1.42;;
45540;SDS011;31265;49.680;8.608;2022-08-18T04:32:59;5.57;;;1.95;;
45540;SDS011;31265;49.680;8.608;2022-08-18T04:35:31;2.63;;;1.67;;
45540;SDS011;31265;49.680;8.608;2022-08-18T04:38:01;4.90;;;1.33;;
45540;SDS011;31265;49.680;8.608;2022-08-18T04:40:29;3.13;;;1.75;;
45540;SDS011;31265;49.680;8.608;2022-08-18T04:42:59;3.45;;;1.45;;
45540;SDS011;31265;49.680;8.608;2022-08-18T04:45:28;2.72;;;1.45;;
45540;SDS011;31265;49.680;8.608;2022-08-18T04:47:56;2.90;;;1.27;;
45540;SDS011;31265;49.680;8.608;2022-08-18T04:50:24;3.15;;;1.35;;
45540;SDS011;31265;49.680;8.608;2022-08-18T04:52:55;2.35;;;0.82;;
45540;SDS011;31265;49.680;8.608;2022-08-18T04:55:46;2.83;;;1.67;;
45540;SDS011;31265;49.680;8.608;2022-08-18T04:58:15;2.33;;;1.38;;
45540;SDS011;31265;49.680;8.608;2022-08-18T05:00:44;3.25;;;1.73;;
45540;SDS011;31265;49.680;8.608;2022-08-18T05:03:12;3.58;;;1.63;;
45540;SDS011;31265;49.680;8.608;2022-08-18T05:05:40;3.53;;;1.98;;
45540;SDS011;31265;49.680;8.608;2022-08-18T05:08:08;2.80;;;1.42;;
45540;SDS011;31265;49.680;8.608;2022-08-18T05:10:36;3.90;;;1.38;;
45540;SDS011;31265;49.680;8.608;2022-08-18T05:13:07;3.33;;;1.60;;
45540;SDS011;31265;49.680;8.608;2022-08-18T05:15:35;3.25;;;1.35;;
45540;SDS011;31265;49.680;8.608;2022-08-18T05:18:25;2.97;;;1.60;;
45540;SDS011;31265;49.680;8.608;2022-08-18T05:20:54;3.70;;;2.03;;
45540;SDS011;31265;49.680;8.608;2022-08-18T05:23:25;5.25;;;1.77;;
45540;SDS011;31265;49.680;8.608;2022-08-18T05:25:58;3.17;;;1.67;;
45540;SDS011;31265;49.680;8.608;2022-08-18T05:28:29;8.70;;;1.63;;
45540;SDS011;31265;49.680;8.608;2022-08-18T05:30:57;4.78;;;1.85;;
45540;SDS011;31265;49.680;8.608;2022-08-18T05:33:26;3.50;;;1.80;;
45540;SDS011;31265;49.680;8.608;2022-08-18T05:36:00;3.47;;;1.70;;
45540;SDS011;31265;49.680;8.608;2022-08-18T05:38:33;4.38;;;1.67;;
45540;SDS011;31265;49.680;8.608;2022-08-18T05:41:09;3.15;;;1.52;;
45540;SDS011;31265;49.680;8.608;2022-08-18T05:43:42;3.20;;;1.60;;
45540;SDS011;31265;49.680;8.608;2022-08-18T05:46:18;3.00;;;1.35;;
45540;SDS011;31265;49.680;8.608;2022-08-18T05:48:52;4.97;;;1.70;;
45540;SDS011;31265;49.680;8.608;2022-08-18T05:51:21;3.13;;;1.63;;
45540;SDS011;31265;49.680;8.608;2022-08-18T05:53:53;4.00;;;1.70;;
45540;SDS011;31265;49.680;8.608;2022-08-18T05:56:41;3.00;;;1.75;;
45540;SDS011;31265;49.680;8.608;2022-08-18T05:59:17;5.00;;;2.00;;
45540;SDS011;31265;49.680;8.608;2022-08-18T06:01:50;2.58;;;1.40;;
45540;SDS011;31265;49.680;8.608;2022-08-18T06:04:28;3.17;;;1.88;;
45540;SDS011;31265;49.680;8.608;2022-08-18T06:09:33;3.88;;;1.60;;
45540;SDS011;31265;49.680;8.608;2022-08-18T06:12:08;3.70;;;2.15;;
45540;SDS011;31265;49.680;8.608;2022-08-18T06:17:18;3.35;;;1.70;;
45540;SDS011;31265;49.680;8.608;2022-08-18T06:20:06;3.35;;;1.88;;
45540;SDS011;31265;49.680;8.608;2022-08-18T06:22:43;3.70;;;1.67;;
45540;SDS011;31265;49.680;8.608;2022-08-18T06:25:24;3.85;;;1.70;;
45540;SDS011;31265;49.680;8.608;2022-08-18T06:28:00;3.60;;;1.80;;
45540;SDS011;31265;49.680;8.608;2022-08-18T06:30:40;3.78;;;1.90;;
45540;SDS011;31265;49.680;8.608;2022-08-18T06:33:29;5.38;;;2.17;;
45540;SDS011;31265;49.680;8.608;2022-08-18T06:36:12;3.60;;;1.52;;
45540;SDS011;31265;49.680;8.608;2022-08-18T06:38:55;2.85;;;1.58;;
45540;SDS011;31265;49.680;8.608;2022-08-18T06:41:33;2.97;;;1.73;;
45540;SDS011;31265;49.680;8.608;2022-08-18T06:44:11;8.82;;;2.47;;
45540;SDS011;31265;49.680;8.608;2022-08-18T06:46:45;4.97;;;2.45;;
45540;SDS011;31265;49.680;8.608;2022-08-18T06:49:22;3.22;;;1.73;;
45540;SDS011;31265;49.680;8.608;2022-08-18T06:54:48;3.55;;;1.80;;
45540;SDS011;31265;49.680;8.608;2022-08-18T06:57:21;4.57;;;2.05;;
45540;SDS011;31265;49.680;8.608;2022-08-18T06:59:54;5.00;;;2.08;;
45540;SDS011;31265;49.680;8.608;2022-08-18T07:02:30;4.68;;;1.95;;
45540;SDS011;31265;49.680;8.608;2022-08-18T07:05:15;4.63;;;1.70;;
45540;SDS011;31265;49.680;8.608;2022-08-18T07:07:59;3.25;;;1.50;;
45540;SDS011;31265;49.680;8.608;2022-08-18T07:10:34;4.43;;;1.98;;
45540;SDS011;31265;49.680;8.608;2022-08-18T07:15:53;6.57;;;2.28;;
45540;SDS011;31265;49.680;8.608;2022-08-18T07:18:25;5.32;;;1.98;;
45540;SDS011;31265;49.680;8.608;2022-08-18T07:20:56;2.53;;;1.70;;
45540;SDS011;31265;49.680;8.608;2022-08-18T07:23:27;2.47;;;1.73;;
45540;SDS011;31265;49.680;8.608;2022-08-18T07:26:06;3.47;;;2.00;;
45540;SDS011;31265;49.680;8.608;2022-08-18T07:28:42;3.50;;;1.90;;
45540;SDS011;31265;49.680;8.608;2022-08-18T07:31:13;4.82;;;1.85;;
45540;SDS011;31265;49.680;8.608;2022-08-18T07:33:54;3.78;;;2.13;;
45540;SDS011;31265;49.680;8.608;2022-08-18T07:36:26;3.78;;;2.17;;
45540;SDS011;31265;49.680;8.608;2022-08-18T07:39:00;3.35;;;1.65;;
45540;SDS011;31265;49.680;8.608;2022-08-18T07:41:33;5.95;;;1.92;;
45540;SDS011;31265;49.680;8.608;2022-08-18T07:44:09;3.42;;;2.05;;
45540;SDS011;31265;49.680;8.608;2022-08-18T07:46:45;4.47;;;2.30;;
45540;SDS011;31265;49.680;8.608;2022-08-18T07:49:20;3.47;;;2.08;;
45540;SDS011;31265;49.680;8.608;2022-08-18T07:51:53;4.13;;;2.42;;
45540;SDS011;31265;49.680;8.608;2022-08-18T07:54:31;5.10;;;1.98;;
45540;SDS011;31265;49.680;8.608;2022-08-18T07:57:20;3.65;;;1.88;;
45540;SDS011;31265;49.680;8.608;2022-08-18T08:00:09;4.05;;;1.60;;
45540;SDS011;31265;49.680;8.608;2022-08-18T08:03:05;3.55;;;2.00;;
45540;SDS011;31265;49.680;8.608;2022-08-18T08:05:48;4.28;;;2.25;;
45540;SDS011;31265;49.680;8.608;2022-08-18T08:08:24;3.80;;;2.03;;
45540;SDS011;31265;49.680;8.608;2022-08-18T08:11:03;3.38;;;1.25;;
45540;SDS011;31265;49.680;8.608;2022-08-18T08:13:41;3.47;;;1.90;;
45540;SDS011;31265;49.680;8.608;2022-08-18T08:16:24;3.75;;;1.90;;
45540;SDS011;31265;49.680;8.608;2022-08-18T08:19:02;4.50;;;2.37;;
45540;SDS011;31265;49.680;8.608;2022-08-18T08:21:41;4.88;;;2.40;;
45540;SDS011;31265;49.680;8.608;2022-08-18T08:24:19;4.45;;;2.17;;
45540;SDS011;31265;49.680;8.608;2022-08-18T08:26:57;4.05;;;2.05;;
45540;SDS011;31265;49.680;8.608;2022-08-18T08:29:36;3.53;;;2.33;;
45540;SDS011;31265;49.680;8.608;2022-08-18T08:32:13;3.85;;;2.05;;
45540;SDS011;31265;49.680;8.608;2022-08-18T08:34:48;3.60;;;1.67;;
45540;SDS011;31265;49.680;8.608;2022-08-18T08:37:22;4.47;;;2.33;;
45540;SDS011;31265;49.680;8.608;2022-08-18T08:39:55;6.40;;;2.03;;
45540;SDS011;31265;49.680;8.608;2022-08-18T08:42:30;5.28;;;2.55;;
45540;SDS011;31265;49.680;8.608;2022-08-18T08:47:37;3.15;;;2.08;;
45540;SDS011;31265;49.680;8.608;2022-08-18T08:50:12;4.18;;;2.38;;
45540;SDS011;31265;49.680;8.608;2022-08-18T08:52:46;4.22;;;2.42;;
45540;SDS011;31265;49.680;8.608;2022-08-18T08:55:23;5.47;;;2.77;;
45540;SDS011;31265;49.680;8.608;2022-08-18T08:57:57;4.90;;;2.40;;
45540;SDS011;31265;49.680;8.608;2022-08-18T09:00:39;5.05;;;2.45;;
45540;SDS011;31265;49.680;8.608;2022-08-18T09:03:12;3.60;;;2.00;;
45540;SDS011;31265;49.680;8.608;2022-08-18T09:05:59;8.68;;;3.13;;
45540;SDS011;31265;49.680;8.608;2022-08-18T09:08:48;4.00;;;2.30;;
45540;SDS011;31265;49.680;8.608;2022-08-18T09:14:55;4.03;;;2.47;;
45540;SDS011;31265;49.680;8.608;2022-08-18T09:17:43;7.97;;;2.95;;
45540;SDS011;31265;49.680;8.608;2022-08-18T09:20:26;4.68;;;2.58;;
45540;SDS011;31265;49.680;8.608;2022-08-18T09:23:03;4.07;;;2.10;;
45540;SDS011;31265;49.680;8.608;2022-08-18T09:25:45;4.53;;;2.72;;
45540;SDS011;31265;49.680;8.608;2022-08-18T09:28:16;4.68;;;3.05;;
45540;SDS011;31265;49.680;8.608;2022-08-18T09:30:50;5.28;;;2.65;;
45540;SDS011;31265;49.680;8.608;2022-08-18T09:33:51;3.75;;;2.08;;
45540;SDS011;31265;49.680;8.608;2022-08-18T09:36:38;7.05;;;3.00;;
45540;SDS011;31265;49.680;8.608;2022-08-18T09:39:24;5.18;;;2.90;;
45540;SDS011;31265;49.680;8.608;2022-08-18T09:42:30;6.20;;;3.38;;
45540;SDS011;31265;49.680;8.608;2022-08-18T09:48:21;6.50;;;2.92;;
45540;SDS011;31265;49.680;8.608;2022-08-18T09:50:59;5.85;;;3.13;;
45540;SDS011;31265;49.680;8.608;2022-08-18T09:53:51;4.50;;;2.90;;
45540;SDS011;31265;49.680;8.608;2022-08-18T10:05:35;8.18;;;3.50;;
45540;SDS011;31265;49.680;8.608;2022-08-18T10:08:26;6.55;;;3.22;;
45540;SDS011;31265;49.680;8.608;2022-08-18T10:11:07;6.03;;;3.80;;
45540;SDS011;31265;49.680;8.608;2022-08-18T10:13:49;6.90;;;3.17;;
45540;SDS011;31265;49.680;8.608;2022-08-18T10:16:44;7.22;;;3.72;;
45540;SDS011;31265;49.680;8.608;2022-08-18T10:19:46;6.35;;;3.25;;
45540;SDS011;31265;49.680;8.608;2022-08-18T10:22:35;7.15;;;4.00;;
45540;SDS011;31265;49.680;8.608;2022-08-18T10:25:07;5.13;;;3.17;;
45540;SDS011;31265;49.680;8.608;2022-08-18T10:27:57;6.60;;;3.85;;
45540;SDS011;31265;49.680;8.608;2022-08-18T10:30:48;5.47;;;3.70;;
45540;SDS011;31265;49.680;8.608;2022-08-18T10:34:00;6.00;;;3.30;;
45540;SDS011;31265;49.680;8.608;2022-08-18T10:36:47;6.72;;;3.35;;
45540;SDS011;31265;49.680;8.608;2022-08-18T10:39:18;5.63;;;2.97;;
45540;SDS011;31265;49.680;8.608;2022-08-18T10:41:55;6.32;;;3.63;;
45540;SDS011;31265;49.680;8.608;2022-08-18T10:44:29;5.47;;;3.55;;
45540;SDS011;31265;49.680;8.608;2022-08-18T10:47:00;7.25;;;3.42;;
45540;SDS011;31265;49.680;8.608;2022-08-18T10:49:39;7.40;;;3.85;;
45540;SDS011;31265;49.680;8.608;2022-08-18T10:52:16;5.03;;;3.33;;
45540;SDS011;31265;49.680;8.608;2022-08-18T10:55:04;7.97;;;2.75;;
45540;SDS011;31265;49.680;8.608;2022-08-18T10:57:59;6.82;;;3.72;;
45540;SDS011;31265;49.680;8.608;2022-08-18T11:03:24;4.60;;;3.10;;
45540;SDS011;31265;49.680;8.608;2022-08-18T11:06:24;6.63;;;3.85;;
45540;SDS011;31265;49.680;8.608;2022-08-18T11:08:53;8.07;;;4.07;;
45540;SDS011;31265;49.680;8.608;2022-08-18T11:11:24;5.40;;;3.67;;
45540;SDS011;31265;49.680;8.608;2022-08-18T11:14:07;8.43;;;4.28;;
45540;SDS011;31265;49.680;8.608;2022-08-18T11:16:45;8.32;;;4.13;;
45540;SDS011;31265;49.680;8.608;2022-08-18T11:19:24;8.27;;;4.35;;
45540;SDS011;31265;49.680;8.608;2022-08-18T11:21:53;4.55;;;2.90;;
45540;SDS011;31265;49.680;8.608;2022-08-18T11:24:23;6.28;;;4.00;;
45540;SDS011;31265;49.680;8.608;2022-08-18T11:26:54;6.85;;;4.18;;
45540;SDS011;31265;49.680;8.608;2022-08-18T11:29:43;10.93;;;5.32;;
45540;SDS011;31265;49.680;8.608;2022-08-18T11:32:13;6.25;;;4.28;;
45540;SDS011;31265;49.680;8.608;2022-08-18T11:34:48;7.40;;;4.53;;
45540;SDS011;31265;49.680;8.608;2022-08-18T11:37:22;9.48;;;4.85;;
45540;SDS011;31265;49.680;8.608;2022-08-18T11:40:21;8.43;;;5.50;;
45540;SDS011;31265;49.680;8.608;2022-08-18T11:43:17;9.95;;;5.45;;
45540;SDS011;31265;49.680;8.608;2022-08-18T11:45:51;10.68;;;5.43;;
45540;SDS011;31265;49.680;8.608;2022-08-18T11:48:30;10.63;;;6.00;;
45540;SDS011;31265;49.680;8.608;2022-08-18T11:51:23;10.15;;;5.68;;
45540;SDS011;31265;49.680;8.608;2022-08-18T11:53:56;11.77;;;6.80;;
45540;SDS011;31265;49.680;8.608;2022-08-18T11:56:27;11.32;;;6.00;;
45540;SDS011;31265;49.680;8.608;2022-08-18T11:59:03;9.73;;;6.47;;
45540;SDS011;31265;49.680;8.608;2022-08-18T12:01:36;11.45;;;7.05;;
45540;SDS011;31265;49.680;8.608;2022-08-18T12:04:20;9.88;;;6.10;;
45540;SDS011;31265;49.680;8.608;2022-08-18T12:06:58;15.93;;;6.35;;
45540;SDS011;31265;49.680;8.608;2022-08-18T12:09:35;10.60;;;6.43;;
45540;SDS011;31265;49.680;8.608;2022-08-18T12:12:29;8.68;;;5.10;;
45540;SDS011;31265;49.680;8.608;2022-08-18T12:15:03;9.18;;;6.38;;
45540;SDS011;31265;49.680;8.608;2022-08-18T12:17:55;10.23;;;5.53;;
45540;SDS011;31265;49.680;8.608;2022-08-18T12:20:23;15.43;;;7.90;;
45540;SDS011;31265;49.680;8.608;2022-08-18T12:22:51;10.70;;;6.93;;
45540;SDS011;31265;49.680;8.608;2022-08-18T12:25:24;13.70;;;7.78;;
45540;SDS011;31265;49.680;8.608;2022-08-18T12:27:53;10.88;;;7.25;;
45540;SDS011;31265;49.680;8.608;2022-08-18T12:30:21;14.73;;;8.82;;
45540;SDS011;31265;49.680;8.608;2022-08-18T12:32:53;12.27;;;7.97;;
45540;SDS011;31265;49.680;8.608;2022-08-18T12:35:33;12.20;;;7.07;;
45540;SDS011;31265;49.680;8.608;2022-08-18T12:38:03;13.80;;;8.50;;
45540;SDS011;31265;49.680;8.608;2022-08-18T12:40:41;12.85;;;7.65;;
45540;SDS011;31265;49.680;8.608;2022-08-18T12:43:10;14.98;;;8.70;;
45540;SDS011;31265;49.680;8.608;2022-08-18T12:45:39;15.13;;;9.30;;
45540;SDS011;31265;49.680;8.608;2022-08-18T12:48:07;14.63;;;8.95;;
45540;SDS011;31265;49.680;8.608;2022-08-18T12:50:36;16.98;;;9.90;;
45540;SDS011;31265;49.680;8.608;2022-08-18T12:53:20;14.30;;;8.80;;
45540;SDS011;31265;49.680;8.608;2022-08-18T12:56:06;19.13;;;9.48;;
45540;SDS011;31265;49.680;8.608;2022-08-18T12:58:39;19.77;;;10.05;;
45540;SDS011;31265;49.680;8.608;2022-08-18T13:01:07;15.35;;;9.57;;
45540;SDS011;31265;49.680;8.608;2022-08-18T13:03:36;12.70;;;8.15;;
45540;SDS011;31265;49.680;8.608;2022-08-18T13:06:08;13.52;;;8.30;;
45540;SDS011;31265;49.680;8.608;2022-08-18T13:08:37;12.55;;;7.78;;
45540;SDS011;31265;49.680;8.608;2022-08-18T13:11:17;15.13;;;9.80;;
45540;SDS011;31265;49.680;8.608;2022-08-18T13:13:50;16.55;;;10.23;;
45540;SDS011;31265;49.680;8.608;2022-08-18T13:16:22;16.38;;;9.52;;
45540;SDS011;31265;49.680;8.608;2022-08-18T13:19:05;17.00;;;8.32;;
45540;SDS011;31265;49.680;8.608;2022-08-18T13:21:36;15.40;;;9.30;;
45540;SDS011;31265;49.680;8.608;2022-08-18T13:24:08;14.85;;;7.97;;
45540;SDS011;31265;49.680;8.608;2022-08-18T13:26:40;13.95;;;7.85;;
45540;SDS011;31265;49.680;8.608;2022-08-18T13:29:12;11.63;;;6.45;;
45540;SDS011;31265;49.680;8.608;2022-08-18T13:31:43;9.68;;;6.50;;
45540;SDS011;31265;49.680;8.608;2022-08-18T13:34:21;9.50;;;6.38;;
45540;SDS011;31265;49.680;8.608;2022-08-18T13:36:50;9.75;;;6.70;;
45540;SDS011;31265;49.680;8.608;2022-08-18T13:39:18;10.32;;;5.68;;
45540;SDS011;31265;49.680;8.608;2022-08-18T13:41:50;7.55;;;4.20;;
45540;SDS011;31265;49.680;8.608;2022-08-18T13:44:20;8.93;;;5.40;;
45540;SDS011;31265;49.680;8.608;2022-08-18T13:46:52;9.13;;;4.35;;
45540;SDS011;31265;49.680;8.608;2022-08-18T13:49:22;5.57;;;4.03;;
45540;SDS011;31265;49.680;8.608;2022-08-18T13:51:56;6.38;;;4.43;;
45540;SDS011;31265;49.680;8.608;2022-08-18T13:54:27;7.82;;;4.70;;
45540;SDS011;31265;49.680;8.608;2022-08-18T13:57:02;6.22;;;4.03;;
45540;SDS011;31265;49.680;8.608;2022-08-18T13:59:32;6.28;;;3.55;;
45540;SDS011;31265;49.680;8.608;2022-08-18T14:02:01;5.97;;;3.95;;
45540;SDS011;31265;49.680;8.608;2022-08-18T14:04:34;7.75;;;4.60;;
45540;SDS011;31265;49.680;8.608;2022-08-18T14:07:04;8.52;;;4.30;;
45540;SDS011;31265;49.680;8.608;2022-08-18T14:09:37;6.47;;;3.97;;
45540;SDS011;31265;49.680;8.608;2022-08-18T14:12:08;6.78;;;3.85;;
45540;SDS011;31265;49.680;8.608;2022-08-18T14:14:51;6.93;;;4.30;;
45540;SDS011;31265;49.680;8.608;2022-08-18T14:17:23;7.65;;;4.72;;
45540;SDS011;31265;49.680;8.608;2022-08-18T14:19:52;5.45;;;3.58;;
45540;SDS011;31265;49.680;8.608;2022-08-18T14:22:48;5.30;;;3.85;;
45540;SDS011;31265;49.680;8.608;2022-08-18T14:25:35;7.18;;;4.15;;
45540;SDS011;31265;49.680;8.608;2022-08-18T14:28:23;7.07;;;4.22;;
45540;SDS011;31265;49.680;8.608;2022-08-18T14:30:51;6.80;;;4.22;;
45540;SDS011;31265;49.680;8.608;2022-08-18T14:36:09;5.65;;;3.65;;
45540;SDS011;31265;49.680;8.608;2022-08-18T14:38:38;6.20;;;3.70;;
45540;SDS011;31265;49.680;8.608;2022-08-18T14:41:11;5.22;;;3.38;;
45540;SDS011;31265;49.680;8.608;2022-08-18T14:43:42;5.57;;;3.05;;
45540;SDS011;31265;49.680;8.608;2022-08-18T14:46:30;7.00;;;3.75;;
45540;SDS011;31265;49.680;8.608;2022-08-18T14:48:59;7.07;;;3.78;;
45540;SDS011;31265;49.680;8.608;2022-08-18T14:51:30;5.80;;;3.45;;
45540;SDS011;31265;49.680;8.608;2022-08-18T14:53:59;7.30;;;3.45;;
45540;SDS011;31265;49.680;8.608;2022-08-18T14:56:27;5.25;;;3.33;;
45540;SDS011;31265;49.680;8.608;2022-08-18T14:59:06;6.55;;;3.50;;
45540;SDS011;31265;49.680;8.608;2022-08-18T15:01:34;7.15;;;3.47;;
45540;SDS011;31265;49.680;8.608;2022-08-18T15:04:08;5.07;;;3.05;;
45540;SDS011;31265;49.680;8.608;2022-08-18T15:06:45;4.65;;;2.92;;
45540;SDS011;31265;49.680;8.608;2022-08-18T15:09:23;5.15;;;3.17;;
45540;SDS011;31265;49.680;8.608;2022-08-18T15:11:53;4.45;;;2.63;;
45540;SDS011;31265;49.680;8.608;2022-08-18T15:14:25;6.53;;;3.60;;
45540;SDS011;31265;49.680;8.608;2022-08-18T15:17:00;5.05;;;3.00;;
45540;SDS011;31265;49.680;8.608;2022-08-18T15:19:37;4.57;;;2.60;;
45540;SDS011;31265;49.680;8.608;2022-08-18T15:22:25;5.63;;;2.75;;
45540;SDS011;31265;49.680;8.608;2022-08-18T15:25:13;4.13;;;2.80;;
45540;SDS011;31265;49.680;8.608;2022-08-18T15:27:59;6.65;;;2.90;;
45540;SDS011;31265;49.680;8.608;2022-08-18T15:30:29;6.13;;;3.85;;
45540;SDS011;31265;49.680;8.608;2022-08-18T15:32:57;3.90;;;2.60;;
45540;SDS011;31265;49.680;8.608;2022-08-18T15:35:29;6.80;;;3.28;;
45540;SDS011;31265;49.680;8.608;2022-08-18T15:37:58;4.50;;;2.30;;
45540;SDS011;31265;49.680;8.608;2022-08-18T15:40:31;3.95;;;2.75;;
45540;SDS011;31265;49.680;8.608;2022-08-18T15:43:07;6.60;;;3.10;;
45540;SDS011;31265;49.680;8.608;2022-08-18T15:45:38;4.63;;;2.90;;
45540;SDS011;31265;49.680;8.608;2022-08-18T15:48:24;6.53;;;2.85;;
45540;SDS011;31265;49.680;8.608;2022-08-18T15:50:54;5.07;;;3.20;;
45540;SDS011;31265;49.680;8.608;2022-08-18T15:53:37;5.78;;;2.63;;
45540;SDS011;31265;49.680;8.608;2022-08-18T15:56:14;4.00;;;2.65;;
45540;SDS011;31265;49.680;8.608;2022-08-18T15:58:46;4.82;;;2.83;;
45540;SDS011;31265;49.680;8.608;2022-08-18T16:01:17;4.00;;;2.85;;
45540;SDS011;31265;49.680;8.608;2022-08-18T16:03:58;6.65;;;3.40;;
45540;SDS011;31265;49.680;8.608;2022-08-18T16:06:27;5.93;;;3.55;;
45540;SDS011;31265;49.680;8.608;2022-08-18T16:08:58;5.15;;;2.60;;
45540;SDS011;31265;49.680;8.608;2022-08-18T16:11:26;4.15;;;2.58;;
45540;SDS011;31265;49.680;8.608;2022-08-18T16:13:55;7.07;;;3.03;;
45540;SDS011;31265;49.680;8.608;2022-08-18T16:16:26;4.43;;;3.03;;
45540;SDS011;31265;49.680;8.608;2022-08-18T16:19:03;9.55;;;3.53;;
45540;SDS011;31265;49.680;8.608;2022-08-18T16:21:32;5.15;;;2.67;;